sensor_id;sensor_type;location;lat;lon;timestamp;pressure;altitude;pressure_sealevel;temperature;humidity
47753;BME280;2038;51.728;6.674;2022-09-03T00:00:15;100540.63;;;19.11;62.18
47753;BME280;2038;51.728;6.674;2022-09-03T00:02:56;100539.06;;;19.18;61.85
47753;BME280;2038;51.728;6.674;2022-09-03T00:05:42;100538.91;;;19.12;62.01
47753;BME280;2038;51.728;6.674;2022-09-03T00:08:31;100532.81;;;19.10;62.20
47753;BME280;2038;51.728;6.674;2022-09-03T00:13:38;100534.97;;;18.95;62.04
47753;BME280;2038;51.728;6.674;2022-09-03T00:16:12;100530.56;;;18.91;62.48
47753;BME280;2038;51.728;6.674;2022-09-03T00:18:49;100528.88;;;18.91;62.50
47753;BME280;2038;51.728;6.674;2022-09-03T00:23:53;100528.28;;;18.72;63.34
47753;BME280;2038;51.728;6.674;2022-09-03T00:26:29;100527.34;;;18.68;62.98
47753;BME280;2038;51.728;6.674;2022-09-03T00:29:14;100527.13;;;18.62;63.43
47753;BME280;2038;51.728;6.674;2022-09-03T00:31:48;100542.59;;;18.90;62.93
47753;BME280;2038;51.728;6.674;2022-09-03T00:34:20;100531.56;;;18.96;62.63
47753;BME280;2038;51.728;6.674;2022-09-03T00:36:52;100538.84;;;18.79;62.83
47753;BME280;2038;51.728;6.674;2022-09-03T00:39:21;100538.69;;;18.73;62.97
47753;BME280;2038;51.728;6.674;2022-09-03T00:47:54;100534.22;;;18.41;63.74
47753;BME280;2038;51.728;6.674;2022-09-03T00:51:03;100533.94;;;18.32;64.14
47753;BME280;2038;51.728;6.674;2022-09-03T00:57:11;100535.13;;;18.14;64.85
47753;BME280;2038;51.728;6.674;2022-09-03T00:59:58;100536.72;;;18.11;64.67
47753;BME280;2038;51.728;6.674;2022-09-03T01:14:29;100539.50;;;17.90;65.74
47753;BME280;2038;51.728;6.674;2022-09-03T01:26:48;100542.44;;;17.75;65.99
47753;BME280;2038;51.728;6.674;2022-09-03T01:29:44;100544.97;;;17.74;65.95
47753;BME280;2038;51.728;6.674;2022-09-03T01:33:02;100548.25;;;17.70;66.26
47753;BME280;2038;51.728;6.674;2022-09-03T01:42:09;100545.16;;;17.55;66.83
47753;BME280;2038;51.728;6.674;2022-09-03T01:45:08;100538.91;;;17.48;66.99
47753;BME280;2038;51.728;6.674;2022-09-03T01:50:30;100544.72;;;17.66;66.33
47753;BME280;2038;51.728;6.674;2022-09-03T01:53:33;100531.88;;;17.68;66.47
47753;BME280;2038;51.728;6.674;2022-09-03T01:59:32;100537.69;;;17.61;66.28
47753;BME280;2038;51.728;6.674;2022-09-03T02:02:14;100535.94;;;17.61;66.47
47753;BME280;2038;51.728;6.674;2022-09-03T02:05:01;100534.84;;;17.55;66.47
47753;BME280;2038;51.728;6.674;2022-09-03T02:07:39;100539.13;;;17.54;66.87
47753;BME280;2038;51.728;6.674;2022-09-03T02:11:06;100542.50;;;17.53;66.82
47753;BME280;2038;51.728;6.674;2022-09-03T02:13:41;100534.69;;;17.50;67.07
47753;BME280;2038;51.728;6.674;2022-09-03T02:16:19;100535.63;;;17.52;66.60
47753;BME280;2038;51.728;6.674;2022-09-03T02:18:58;100531.09;;;17.45;66.98
47753;BME280;2038;51.728;6.674;2022-09-03T02:21:37;100532.72;;;17.43;67.34
47753;BME280;2038;51.728;6.674;2022-09-03T02:24:07;100536.28;;;17.47;67.26
47753;BME280;2038;51.728;6.674;2022-09-03T02:26:35;100533.69;;;17.47;67.26
47753;BME280;2038;51.728;6.674;2022-09-03T02:29:01;100529.34;;;17.44;67.34
47753;BME280;2038;51.728;6.674;2022-09-03T02:31:28;100520.50;;;17.38;67.46
47753;BME280;2038;51.728;6.674;2022-09-03T02:33:56;100528.13;;;17.35;67.35
47753;BME280;2038;51.728;6.674;2022-09-03T02:36:31;100530.59;;;17.31;67.64
47753;BME280;2038;51.728;6.674;2022-09-03T02:39:01;100526.53;;;17.13;67.87
47753;BME280;2038;51.728;6.674;2022-09-03T02:41:27;100522.19;;;17.12;68.14
47753;BME280;2038;51.728;6.674;2022-09-03T02:47:02;100517.59;;;17.03;68.37
47753;BME280;2038;51.728;6.674;2022-09-03T02:49:31;100520.16;;;17.03;68.24
47753;BME280;2038;51.728;6.674;2022-09-03T02:52:07;100514.06;;;17.01;68.22
47753;BME280;2038;51.728;6.674;2022-09-03T02:54:37;100518.41;;;17.02;68.53
47753;BME280;2038;51.728;6.674;2022-09-03T02:57:09;100514.03;;;17.00;68.54
47753;BME280;2038;51.728;6.674;2022-09-03T02:59:38;100517.47;;;17.00;68.49
47753;BME280;2038;51.728;6.674;2022-09-03T03:02:05;100515.56;;;16.95;68.76
47753;BME280;2038;51.728;6.674;2022-09-03T03:04:32;100523.22;;;16.93;68.89
47753;BME280;2038;51.728;6.674;2022-09-03T03:06:58;100520.63;;;16.93;68.67
47753;BME280;2038;51.728;6.674;2022-09-03T03:09:24;100520.53;;;16.90;69.07
47753;BME280;2038;51.728;6.674;2022-09-03T03:11:52;100515.34;;;16.89;68.98
47753;BME280;2038;51.728;6.674;2022-09-03T03:14:20;100511.88;;;16.88;69.03
47753;BME280;2038;51.728;6.674;2022-09-03T03:16:48;100519.66;;;16.90;68.88
47753;BME280;2038;51.728;6.674;2022-09-03T03:19:14;100510.19;;;16.89;69.14
47753;BME280;2038;51.728;6.674;2022-09-03T03:21:41;100513.53;;;16.86;69.08
47753;BME280;2038;51.728;6.674;2022-09-03T03:24:07;100515.56;;;16.95;68.81
47753;BME280;2038;51.728;6.674;2022-09-03T03:26:34;100508.38;;;16.86;69.30
47753;BME280;2038;51.728;6.674;2022-09-03T03:29:01;100515.28;;;16.87;68.97
47753;BME280;2038;51.728;6.674;2022-09-03T03:31:31;100514.19;;;16.80;69.39
47753;BME280;2038;51.728;6.674;2022-09-03T03:34:00;100509.78;;;16.78;69.39
47753;BME280;2038;51.728;6.674;2022-09-03T03:36:29;100505.50;;;16.77;69.51
47753;BME280;2038;51.728;6.674;2022-09-03T03:38:58;100508.91;;;16.77;69.27
47753;BME280;2038;51.728;6.674;2022-09-03T03:41:31;100506.50;;;16.82;69.57
47753;BME280;2038;51.728;6.674;2022-09-03T03:44:01;100507.34;;;16.81;69.63
47753;BME280;2038;51.728;6.674;2022-09-03T03:46:34;100508.09;;;16.78;69.84
47753;BME280;2038;51.728;6.674;2022-09-03T03:49:03;100507.91;;;16.74;69.65
47753;BME280;2038;51.728;6.674;2022-09-03T03:51:31;100511.44;;;16.76;69.43
47753;BME280;2038;51.728;6.674;2022-09-03T03:53:58;100511.34;;;16.73;69.71
47753;BME280;2038;51.728;6.674;2022-09-03T03:56:25;100507.53;;;16.63;70.38
47753;BME280;2038;51.728;6.674;2022-09-03T03:58:53;100499.19;;;16.69;70.09
47753;BME280;2038;51.728;6.674;2022-09-03T04:01:24;100500.38;;;16.56;70.33
47753;BME280;2038;51.728;6.674;2022-09-03T04:03:54;100503.16;;;16.61;69.99
47753;BME280;2038;51.728;6.674;2022-09-03T04:06:22;100501.31;;;16.57;70.49
47753;BME280;2038;51.728;6.674;2022-09-03T04:08:48;100502.88;;;16.55;70.59
47753;BME280;2038;51.728;6.674;2022-09-03T04:11:18;100496.69;;;16.50;70.64
47753;BME280;2038;51.728;6.674;2022-09-03T04:13:47;100501.91;;;16.51;70.37
47753;BME280;2038;51.728;6.674;2022-09-03T04:16:20;100501.97;;;16.53;70.32
47753;BME280;2038;51.728;6.674;2022-09-03T04:18:49;100502.81;;;16.53;70.65
47753;BME280;2038;51.728;6.674;2022-09-03T04:21:21;100494.25;;;16.53;70.46
47753;BME280;2038;51.728;6.674;2022-09-03T04:23:50;100499.44;;;16.54;70.60
47753;BME280;2038;51.728;6.674;2022-09-03T04:26:23;100491.50;;;16.48;70.56
47753;BME280;2038;51.728;6.674;2022-09-03T04:28:51;100488.94;;;16.48;70.39
47753;BME280;2038;51.728;6.674;2022-09-03T04:31:19;100489.66;;;16.46;70.87
47753;BME280;2038;51.728;6.674;2022-09-03T04:33:46;100489.66;;;16.46;70.65
47753;BME280;2038;51.728;6.674;2022-09-03T04:36:18;100490.44;;;16.43;70.71
47753;BME280;2038;51.728;6.674;2022-09-03T04:38:47;100479.88;;;16.35;71.20
47753;BME280;2038;51.728;6.674;2022-09-03T04:41:22;100482.56;;;16.38;70.75
47753;BME280;2038;51.728;6.674;2022-09-03T04:43:54;100483.38;;;16.37;70.86
47753;BME280;2038;51.728;6.674;2022-09-03T04:46:24;100483.31;;;16.36;70.72
47753;BME280;2038;51.728;6.674;2022-09-03T04:48:53;100486.06;;;16.41;70.78
47753;BME280;2038;51.728;6.674;2022-09-03T04:51:22;100488.50;;;16.37;70.74
47753;BME280;2038;51.728;6.674;2022-09-03T04:53:56;100481.56;;;16.35;70.83
47753;BME280;2038;51.728;6.674;2022-09-03T04:56:28;100490.06;;;16.32;70.85
47753;BME280;2038;51.728;6.674;2022-09-03T04:58:58;100486.59;;;16.32;70.87
47753;BME280;2038;51.728;6.674;2022-09-03T05:01:28;100489.16;;;16.32;70.75
47753;BME280;2038;51.728;6.674;2022-09-03T05:03:57;100490.88;;;16.31;70.90
47753;BME280;2038;51.728;6.674;2022-09-03T05:06:24;100482.19;;;16.29;71.15
47753;BME280;2038;51.728;6.674;2022-09-03T05:08:53;100488.22;;;16.30;71.01
47753;BME280;2038;51.728;6.674;2022-09-03T05:11:20;100497.69;;;16.31;71.01
47753;BME280;2038;51.728;6.674;2022-09-03T05:13:51;100483.88;;;16.29;71.21
47753;BME280;2038;51.728;6.674;2022-09-03T05:16:19;100486.41;;;16.27;71.27
47753;BME280;2038;51.728;6.674;2022-09-03T05:18:47;100486.59;;;16.32;71.16
47753;BME280;2038;51.728;6.674;2022-09-03T05:21:17;100483.84;;;16.27;71.49
47753;BME280;2038;51.728;6.674;2022-09-03T05:23:46;100490.78;;;16.30;70.97
47753;BME280;2038;51.728;6.674;2022-09-03T05:26:17;100492.63;;;16.32;71.66
47753;BME280;2038;51.728;6.674;2022-09-03T05:28:45;100487.78;;;16.40;71.57
47753;BME280;2038;51.728;6.674;2022-09-03T05:31:17;100489.56;;;16.43;71.50
47753;BME280;2038;51.728;6.674;2022-09-03T05:33:47;100494.00;;;16.47;71.32
47753;BME280;2038;51.728;6.674;2022-09-03T05:36:16;100485.69;;;16.54;71.23
47753;BME280;2038;51.728;6.674;2022-09-03T05:38:45;100485.88;;;16.57;71.21
47753;BME280;2038;51.728;6.674;2022-09-03T05:41:16;100484.38;;;16.63;70.85
47753;BME280;2038;51.728;6.674;2022-09-03T05:43:43;100485.28;;;16.65;71.03
47753;BME280;2038;51.728;6.674;2022-09-03T05:46:12;100493.25;;;16.71;70.61
47753;BME280;2038;51.728;6.674;2022-09-03T05:48:43;100486.59;;;16.76;70.94
47753;BME280;2038;51.728;6.674;2022-09-03T05:51:14;100492.03;;;16.85;70.69
47753;BME280;2038;51.728;6.674;2022-09-03T05:53:46;100494.03;;;16.93;70.22
47753;BME280;2038;51.728;6.674;2022-09-03T05:56:16;100488.28;;;17.00;70.10
47753;BME280;2038;51.728;6.674;2022-09-03T05:58:50;100496.81;;;16.99;70.22
47753;BME280;2038;51.728;6.674;2022-09-03T06:03:56;100505.69;;;17.07;69.86
47753;BME280;2038;51.728;6.674;2022-09-03T06:06:35;100505.06;;;17.14;69.79
47753;BME280;2038;51.728;6.674;2022-09-03T06:09:14;100502.72;;;17.20;69.79
47753;BME280;2038;51.728;6.674;2022-09-03T06:11:43;100501.19;;;17.25;69.99
47753;BME280;2038;51.728;6.674;2022-09-03T06:14:11;100497.78;;;17.26;70.20
47753;BME280;2038;51.728;6.674;2022-09-03T06:16:41;100498.31;;;17.41;69.52
47753;BME280;2038;51.728;6.674;2022-09-03T06:19:10;100508.00;;;17.48;69.56
47753;BME280;2038;51.728;6.674;2022-09-03T06:21:41;100507.31;;;17.54;69.37
47753;BME280;2038;51.728;6.674;2022-09-03T06:24:10;100510.16;;;17.61;69.18
47753;BME280;2038;51.728;6.674;2022-09-03T06:26:39;100511.44;;;17.74;68.90
47753;BME280;2038;51.728;6.674;2022-09-03T06:29:05;100512.50;;;17.79;68.84
47753;BME280;2038;51.728;6.674;2022-09-03T06:31:32;100512.00;;;17.91;68.88
47753;BME280;2038;51.728;6.674;2022-09-03T06:33:58;100508.75;;;17.96;68.18
47753;BME280;2038;51.728;6.674;2022-09-03T06:36:24;100514.31;;;18.10;68.31
47753;BME280;2038;51.728;6.674;2022-09-03T06:38:53;100513.84;;;18.21;68.45
47753;BME280;2038;51.728;6.674;2022-09-03T06:41:22;100505.88;;;18.42;67.41
47753;BME280;2038;51.728;6.674;2022-09-03T06:43:53;100506.06;;;18.48;67.17
47753;BME280;2038;51.728;6.674;2022-09-03T06:46:23;100502.94;;;18.58;66.99
47753;BME280;2038;51.728;6.674;2022-09-03T06:48:50;100508.59;;;18.75;66.76
47753;BME280;2038;51.728;6.674;2022-09-03T06:51:23;100504.72;;;18.89;66.61
47753;BME280;2038;51.728;6.674;2022-09-03T06:53:54;100512.81;;;19.03;66.28
47753;BME280;2038;51.728;6.674;2022-09-03T06:56:28;100513.66;;;19.02;65.39
47753;BME280;2038;51.728;6.674;2022-09-03T06:58:59;100508.31;;;19.27;65.47
47753;BME280;2038;51.728;6.674;2022-09-03T07:01:30;100510.19;;;19.33;64.79
47753;BME280;2038;51.728;6.674;2022-09-03T07:04:05;100510.56;;;19.46;64.68
47753;BME280;2038;51.728;6.674;2022-09-03T07:06:37;100511.69;;;19.56;65.05
47753;BME280;2038;51.728;6.674;2022-09-03T07:09:09;100511.28;;;19.74;64.64
47753;BME280;2038;51.728;6.674;2022-09-03T07:11:37;100506.38;;;19.84;63.73
47753;BME280;2038;51.728;6.674;2022-09-03T07:14:11;100503.16;;;19.94;63.68
47753;BME280;2038;51.728;6.674;2022-09-03T07:16:38;100514.72;;;20.08;63.62
47753;BME280;2038;51.728;6.674;2022-09-03T07:19:06;100509.66;;;20.13;63.05
47753;BME280;2038;51.728;6.674;2022-09-03T07:21:35;100514.94;;;20.19;62.71
47753;BME280;2038;51.728;6.674;2022-09-03T07:24:02;100521.38;;;20.35;62.62
47753;BME280;2038;51.728;6.674;2022-09-03T07:26:32;100516.19;;;20.35;62.24
47753;BME280;2038;51.728;6.674;2022-09-03T07:29:01;100510.34;;;20.43;62.26
47753;BME280;2038;51.728;6.674;2022-09-03T07:31:32;100508.19;;;20.63;61.68
47753;BME280;2038;51.728;6.674;2022-09-03T07:34:09;100507.41;;;20.66;61.50
47753;BME280;2038;51.728;6.674;2022-09-03T07:36:40;100510.28;;;20.82;61.34
47753;BME280;2038;51.728;6.674;2022-09-03T07:39:09;100503.63;;;20.93;60.84
47753;BME280;2038;51.728;6.674;2022-09-03T07:41:37;100509.16;;;21.10;60.43
47753;BME280;2038;51.728;6.674;2022-09-03T07:44:04;100516.22;;;21.19;60.30
47753;BME280;2038;51.728;6.674;2022-09-03T07:46:36;100501.69;;;21.27;60.04
47753;BME280;2038;51.728;6.674;2022-09-03T07:49:03;100513.41;;;21.53;60.46
47753;BME280;2038;51.728;6.674;2022-09-03T07:51:35;100518.81;;;21.65;60.03
47753;BME280;2038;51.728;6.674;2022-09-03T07:54:05;100514.59;;;21.72;58.88
47753;BME280;2038;51.728;6.674;2022-09-03T07:56:35;100515.91;;;21.97;58.60
47753;BME280;2038;51.728;6.674;2022-09-03T07:59:03;100513.53;;;22.12;58.50
47753;BME280;2038;51.728;6.674;2022-09-03T08:01:31;100511.84;;;22.14;58.10
47753;BME280;2038;51.728;6.674;2022-09-03T08:04:00;100505.13;;;22.26;58.25
47753;BME280;2038;51.728;6.674;2022-09-03T08:06:29;100498.19;;;22.28;57.88
47753;BME280;2038;51.728;6.674;2022-09-03T08:09:00;100508.78;;;22.42;57.28
47753;BME280;2038;51.728;6.674;2022-09-03T08:11:29;100509.06;;;22.62;57.37
47753;BME280;2038;51.728;6.674;2022-09-03T08:14:00;100507.34;;;22.62;57.18
47753;BME280;2038;51.728;6.674;2022-09-03T08:16:34;100512.44;;;22.56;57.11
47753;BME280;2038;51.728;6.674;2022-09-03T08:19:05;100504.72;;;22.62;57.24
47753;BME280;2038;51.728;6.674;2022-09-03T08:21:32;100515.28;;;22.73;57.10
47753;BME280;2038;51.728;6.674;2022-09-03T08:23:58;100513.03;;;23.02;57.02
47753;BME280;2038;51.728;6.674;2022-09-03T08:26:29;100517.63;;;23.25;56.66
47753;BME280;2038;51.728;6.674;2022-09-03T08:28:57;100515.75;;;23.15;55.98
47753;BME280;2038;51.728;6.674;2022-09-03T08:31:24;100524.47;;;23.17;56.10
47753;BME280;2038;51.728;6.674;2022-09-03T08:33:53;100520.97;;;23.15;55.92
47753;BME280;2038;51.728;6.674;2022-09-03T08:36:23;100521.00;;;23.17;56.08
47753;BME280;2038;51.728;6.674;2022-09-03T08:38:59;100513.13;;;23.09;55.86
47753;BME280;2038;51.728;6.674;2022-09-03T08:41:47;100525.44;;;23.28;56.11
47753;BME280;2038;51.728;6.674;2022-09-03T08:47:41;100514.44;;;23.52;55.40
47753;BME280;2038;51.728;6.674;2022-09-03T08:50:25;100520.59;;;23.62;55.10
47753;BME280;2038;51.728;6.674;2022-09-03T08:53:06;100522.19;;;23.48;55.57
47753;BME280;2038;51.728;6.674;2022-09-03T08:58:16;100518.97;;;23.73;55.33
47753;BME280;2038;51.728;6.674;2022-09-03T09:01:00;100517.25;;;23.75;55.38
47753;BME280;2038;51.728;6.674;2022-09-03T09:09:48;100524.38;;;23.99;55.30
47753;BME280;2038;51.728;6.674;2022-09-03T09:15:39;100523.56;;;24.07;54.32
47753;BME280;2038;51.728;6.674;2022-09-03T09:18:55;100521.78;;;24.00;54.42
47753;BME280;2038;51.728;6.674;2022-09-03T09:21:41;100514.16;;;24.21;54.29
47753;BME280;2038;51.728;6.674;2022-09-03T09:24:28;100518.56;;;24.36;54.10
47753;BME280;2038;51.728;6.674;2022-09-03T09:27:04;100517.75;;;24.45;54.01
47753;BME280;2038;51.728;6.674;2022-09-03T09:29:36;100516.03;;;24.45;53.96
47753;BME280;2038;51.728;6.674;2022-09-03T09:32:06;100516.03;;;24.42;53.75
47753;BME280;2038;51.728;6.674;2022-09-03T09:34:38;100511.66;;;24.38;53.79
47753;BME280;2038;51.728;6.674;2022-09-03T09:37:10;100516.94;;;24.47;54.05
47753;BME280;2038;51.728;6.674;2022-09-03T09:39:39;100516.97;;;24.61;53.84
47753;BME280;2038;51.728;6.674;2022-09-03T09:42:10;100517.00;;;24.68;53.31
47753;BME280;2038;51.728;6.674;2022-09-03T09:44:38;100524.81;;;24.65;53.60
47753;BME280;2038;51.728;6.674;2022-09-03T09:47:11;100519.59;;;24.62;53.49
47753;BME280;2038;51.728;6.674;2022-09-03T09:49:52;100517.91;;;24.80;53.82
47753;BME280;2038;51.728;6.674;2022-09-03T09:52:28;100517.19;;;25.05;53.29
47753;BME280;2038;51.728;6.674;2022-09-03T09:55:28;100516.31;;;25.09;53.12
47753;BME280;2038;51.728;6.674;2022-09-03T09:58:07;100524.19;;;25.26;52.96
47753;BME280;2038;51.728;6.674;2022-09-03T10:00:36;100521.56;;;25.18;52.43
47753;BME280;2038;51.728;6.674;2022-09-03T10:03:09;100522.44;;;25.29;52.92
47753;BME280;2038;51.728;6.674;2022-09-03T10:05:37;100525.03;;;25.28;52.83
47753;BME280;2038;51.728;6.674;2022-09-03T10:08:19;100524.25;;;25.51;52.34
47753;BME280;2038;51.728;6.674;2022-09-03T10:10:49;100524.28;;;25.54;52.30
47753;BME280;2038;51.728;6.674;2022-09-03T10:13:19;100519.06;;;25.62;52.14
47753;BME280;2038;51.728;6.674;2022-09-03T10:15:58;100513.81;;;25.65;52.18
47753;BME280;2038;51.728;6.674;2022-09-03T10:18:42;100506.88;;;25.87;52.48
47753;BME280;2038;51.728;6.674;2022-09-03T10:21:32;100516.44;;;25.97;51.75
47753;BME280;2038;51.728;6.674;2022-09-03T10:24:29;100513.84;;;25.88;51.36
47753;BME280;2038;51.728;6.674;2022-09-03T10:27:07;100507.72;;;26.07;52.29
47753;BME280;2038;51.728;6.674;2022-09-03T10:29:36;100506.84;;;26.16;51.23
47753;BME280;2038;51.728;6.674;2022-09-03T10:32:19;100504.22;;;26.19;51.47
47753;BME280;2038;51.728;6.674;2022-09-03T10:44:03;100506.84;;;26.20;51.00
47753;BME280;2038;51.728;6.674;2022-09-03T10:50:13;100501.56;;;26.44;51.00
47753;BME280;2038;51.728;6.674;2022-09-03T10:53:13;100499.81;;;26.49;50.96
47753;BME280;2038;51.728;6.674;2022-09-03T10:59:28;100501.56;;;26.46;50.44
47753;BME280;2038;51.728;6.674;2022-09-03T11:05:15;100501.47;;;26.69;50.85
47753;BME280;2038;51.728;6.674;2022-09-03T11:10:45;100498.88;;;26.61;51.32
47753;BME280;2038;51.728;6.674;2022-09-03T11:13:30;100503.25;;;26.61;50.85
47753;BME280;2038;51.728;6.674;2022-09-03T11:16:11;100500.59;;;26.76;50.54
47753;BME280;2038;51.728;6.674;2022-09-03T11:18:50;100493.63;;;26.75;50.60
47753;BME280;2038;51.728;6.674;2022-09-03T11:21:23;100491.03;;;26.67;50.69
47753;BME280;2038;51.728;6.674;2022-09-03T11:24:16;100493.72;;;26.52;50.69
47753;BME280;2038;51.728;6.674;2022-09-03T11:26:44;100495.38;;;26.71;50.83
47753;BME280;2038;51.728;6.674;2022-09-03T11:29:49;100494.47;;;26.80;50.91
47753;BME280;2038;51.728;6.674;2022-09-03T11:38:04;100489.91;;;27.18;49.99
47753;BME280;2038;51.728;6.674;2022-09-03T11:41:10;100488.09;;;27.29;50.01
47753;BME280;2038;51.728;6.674;2022-09-03T11:43:41;100485.44;;;27.35;49.92
47753;BME280;2038;51.728;6.674;2022-09-03T11:48:54;100480.16;;;27.41;49.59
47753;BME280;2038;51.728;6.674;2022-09-03T11:51:39;100476.66;;;27.44;50.19
47753;BME280;2038;51.728;6.674;2022-09-03T11:54:24;100477.50;;;27.44;49.87
47753;BME280;2038;51.728;6.674;2022-09-03T11:57:11;100482.75;;;27.41;49.53
47753;BME280;2038;51.728;6.674;2022-09-03T11:59:43;100464.31;;;27.64;49.33
47753;BME280;2038;51.728;6.674;2022-09-03T12:22:18;100451.91;;;27.81;49.16
47753;BME280;2038;51.728;6.674;2022-09-03T12:24:46;100460.94;;;27.41;49.77
47753;BME280;2038;51.728;6.674;2022-09-03T12:27:24;100452.38;;;27.21;50.48
47753;BME280;2038;51.728;6.674;2022-09-03T12:29:53;100449.81;;;27.15;50.07
47753;BME280;2038;51.728;6.674;2022-09-03T12:32:29;100453.19;;;27.32;50.62
47753;BME280;2038;51.728;6.674;2022-09-03T12:34:57;100453.22;;;27.26;49.98
47753;BME280;2038;51.728;6.674;2022-09-03T12:37:39;100450.53;;;27.35;49.99
47753;BME280;2038;51.728;6.674;2022-09-03T12:40:19;100453.09;;;27.44;50.06
47753;BME280;2038;51.728;6.674;2022-09-03T12:42:48;100459.22;;;27.48;50.14
47753;BME280;2038;51.728;6.674;2022-09-03T12:45:19;100453.91;;;27.54;49.59
47753;BME280;2038;51.728;6.674;2022-09-03T12:47:47;100445.19;;;27.55;49.69
47753;BME280;2038;51.728;6.674;2022-09-03T12:50:21;100432.00;;;27.62;49.99
47753;BME280;2038;51.728;6.674;2022-09-03T12:55:45;100438.72;;;27.89;50.18
47753;BME280;2038;51.728;6.674;2022-09-03T12:58:32;100442.09;;;28.03;50.41
47753;BME280;2038;51.728;6.674;2022-09-03T13:01:10;100444.00;;;27.86;50.41
47753;BME280;2038;51.728;6.674;2022-09-03T13:04:02;100433.72;;;27.65;50.70
47753;BME280;2038;51.728;6.674;2022-09-03T13:09:26;100439.56;;;27.96;49.83
47753;BME280;2038;51.728;6.674;2022-09-03T13:11:55;100434.31;;;27.96;49.65
47753;BME280;2038;51.728;6.674;2022-09-03T13:14:25;100436.03;;;27.97;50.22
47753;BME280;2038;51.728;6.674;2022-09-03T13:17:16;100436.16;;;27.86;50.26
47753;BME280;2038;51.728;6.674;2022-09-03T13:20:34;100425.00;;;27.67;50.94
47753;BME280;2038;51.728;6.674;2022-09-03T13:23:56;100431.06;;;27.71;52.31
47753;BME280;2038;51.728;6.674;2022-09-03T13:33:08;100446.28;;;28.21;52.42
47753;BME280;2038;51.728;6.674;2022-09-03T13:36:18;100443.34;;;28.48;51.87
47753;BME280;2038;51.728;6.674;2022-09-03T13:39:03;100443.09;;;28.66;51.91
47753;BME280;2038;51.728;6.674;2022-09-03T13:42:09;100442.91;;;28.81;51.56
47753;BME280;2038;51.728;6.674;2022-09-03T13:44:46;100438.34;;;28.96;50.20
47753;BME280;2038;51.728;6.674;2022-09-03T13:50:39;100441.56;;;29.16;49.96
47753;BME280;2038;51.728;6.674;2022-09-03T13:53:22;100439.75;;;29.18;49.86
47753;BME280;2038;51.728;6.674;2022-09-03T13:56:33;100442.16;;;29.33;49.44
47753;BME280;2038;51.728;6.674;2022-09-03T13:59:30;100442.97;;;29.40;49.13
47753;BME280;2038;51.728;6.674;2022-09-03T14:02:22;100438.59;;;29.39;48.36
47753;BME280;2038;51.728;6.674;2022-09-03T14:05:07;100448.97;;;29.46;48.56
47753;BME280;2038;51.728;6.674;2022-09-03T14:08:00;100441.88;;;29.51;47.96
47753;BME280;2038;51.728;6.674;2022-09-03T14:11:37;100442.75;;;29.50;48.38
47753;BME280;2038;51.728;6.674;2022-09-03T14:17:14;100440.13;;;29.52;48.10
47753;BME280;2038;51.728;6.674;2022-09-03T14:25:35;100430.28;;;29.63;48.82
47753;BME280;2038;51.728;6.674;2022-09-03T14:28:15;100434.50;;;29.73;48.90
47753;BME280;2038;51.728;6.674;2022-09-03T14:34:33;100429.41;;;29.64;48.51
47753;BME280;2038;51.728;6.674;2022-09-03T14:40:02;100432.72;;;29.73;48.49
47753;BME280;2038;51.728;6.674;2022-09-03T14:46:20;100437.31;;;29.62;48.49
47753;BME280;2038;51.728;6.674;2022-09-03T14:49:36;100444.88;;;29.81;48.14
47753;BME280;2038;51.728;6.674;2022-09-03T14:59:16;100450.66;;;29.50;48.55
47753;BME280;2038;51.728;6.674;2022-09-03T15:02:11;100443.22;;;29.73;48.47
47753;BME280;2038;51.728;6.674;2022-09-03T15:08:37;100444.41;;;30.06;47.31
47753;BME280;2038;51.728;6.674;2022-09-03T15:11:31;100438.25;;;30.09;46.80
47753;BME280;2038;51.728;6.674;2022-09-03T15:14:26;100440.09;;;30.04;46.72
47753;BME280;2038;51.728;6.674;2022-09-03T15:25:12;100442.13;;;29.85;46.72
47753;BME280;2038;51.728;6.674;2022-09-03T15:31:37;100448.53;;;29.70;46.39
47753;BME280;2038;51.728;6.674;2022-09-03T15:34:39;100444.03;;;29.79;46.05
47753;BME280;2038;51.728;6.674;2022-09-03T15:37:19;100453.53;;;29.89;45.64
47753;BME280;2038;51.728;6.674;2022-09-03T15:39:59;100442.97;;;29.90;45.77
47753;BME280;2038;51.728;6.674;2022-09-03T15:42:34;100443.94;;;29.85;46.32
47753;BME280;2038;51.728;6.674;2022-09-03T15:45:38;100449.94;;;29.93;45.92
47753;BME280;2038;51.728;6.674;2022-09-03T15:48:31;100456.09;;;29.90;45.84
47753;BME280;2038;51.728;6.674;2022-09-03T15:54:35;100444.03;;;29.79;45.62
47753;BME280;2038;51.728;6.674;2022-09-03T15:59:47;100450.38;;;29.65;45.97
47753;BME280;2038;51.728;6.674;2022-09-03T16:02:26;100453.22;;;29.53;46.77
47753;BME280;2038;51.728;6.674;2022-09-03T16:05:04;100451.53;;;29.49;46.64
47753;BME280;2038;51.728;6.674;2022-09-03T16:10:35;100456.31;;;29.24;46.86
47753;BME280;2038;51.728;6.674;2022-09-03T16:13:27;100455.41;;;29.28;47.20
47753;BME280;2038;51.728;6.674;2022-09-03T16:16:30;100459.81;;;29.23;46.93
47753;BME280;2038;51.728;6.674;2022-09-03T16:19:17;100458.00;;;29.25;47.20
47753;BME280;2038;51.728;6.674;2022-09-03T16:22:06;100463.50;;;29.10;47.30
47753;BME280;2038;51.728;6.674;2022-09-03T16:25:01;100455.91;;;28.92;47.52
47753;BME280;2038;51.728;6.674;2022-09-03T16:27:41;100460.19;;;28.98;48.14
47753;BME280;2038;51.728;6.674;2022-09-03T16:33:11;100461.44;;;28.71;48.32
47753;BME280;2038;51.728;6.674;2022-09-03T16:36:17;100461.44;;;28.72;48.37
47753;BME280;2038;51.728;6.674;2022-09-03T16:39:02;100467.59;;;28.67;48.68
47753;BME280;2038;51.728;6.674;2022-09-03T16:50:25;100458.50;;;28.23;49.17
47753;BME280;2038;51.728;6.674;2022-09-03T16:53:04;100457.72;;;28.15;49.32
47753;BME280;2038;51.728;6.674;2022-09-03T17:07:37;100470.25;;;27.83;51.05
47753;BME280;2038;51.728;6.674;2022-09-03T17:10:37;100478.16;;;27.75;50.80
47753;BME280;2038;51.728;6.674;2022-09-03T17:13:25;100472.16;;;27.61;51.12
47753;BME280;2038;51.728;6.674;2022-09-03T17:16:59;100473.06;;;27.59;51.14
47753;BME280;2038;51.728;6.674;2022-09-03T17:20:08;100476.66;;;27.47;51.68